sensor_id;sensor_type;location;lat;lon;timestamp;temperature;humidity
62476;DHT22;50739;45.670;11.936;2023-02-25T09:47:43;17.80;74.45
62476;DHT22;50739;45.670;11.936;2023-02-25T09:57:21;14.81;72.01
62476;DHT22;50739;45.670;11.936;2023-02-25T10:02:30;12.16;81.79
62476;DHT22;50739;45.670;11.936;2023-02-25T10:07:34;11.65;84.07
62476;DHT22;50739;45.670;11.936;2023-02-25T10:12:42;11.24;85.39
62476;DHT22;50739;45.670;11.936;2023-02-25T10:18:13;11.04;86.27
62476;DHT22;50739;45.670;11.936;2023-02-25T10:23:31;11.17;85.43
62476;DHT22;50739;45.670;11.936;2023-02-25T10:28:39;11.16;85.50
62476;DHT22;50739;45.670;11.936;2023-02-25T10:33:44;11.24;85.57
62476;DHT22;50739;45.670;11.936;2023-02-25T10:38:48;11.34;85.15
62476;DHT22;50739;45.670;11.936;2023-02-25T10:43:52;11.42;85.38
62476;DHT22;50739;45.670;11.936;2023-02-25T10:48:57;11.55;84.17
62476;DHT22;50739;45.670;11.936;2023-02-25T10:54:05;11.90;82.24
62476;DHT22;50739;45.670;11.936;2023-02-25T10:59:24;11.79;81.75
62476;DHT22;50739;45.670;11.936;2023-02-25T11:04:30;11.92;81.23
62476;DHT22;50739;45.670;11.936;2023-02-25T11:09:33;11.99;80.91
62476;DHT22;50739;45.670;11.936;2023-02-25T11:14:38;12.03;82.14
62476;DHT22;50739;45.670;11.936;2023-02-25T11:19:42;11.99;82.93
62476;DHT22;50739;45.670;11.936;2023-02-25T11:24:54;11.93;83.23
62476;DHT22;50739;45.670;11.936;2023-02-25T11:30:04;11.87;83.08
62476;DHT22;50739;45.670;11.936;2023-02-25T11:35:15;11.87;83.18
62476;DHT22;50739;45.670;11.936;2023-02-25T11:40:23;11.92;83.03
62476;DHT22;50739;45.670;11.936;2023-02-25T11:45:28;11.87;82.83
62476;DHT22;50739;45.670;11.936;2023-02-25T11:50:35;11.86;82.79
62476;DHT22;50739;45.670;11.936;2023-02-25T11:55:49;12.03;82.41
62476;DHT22;50739;45.670;11.936;2023-02-25T12:00:58;12.03;82.45
62476;DHT22;50739;45.670;11.936;2023-02-25T12:06:11;11.87;82.44
62476;DHT22;50739;45.670;11.936;2023-02-25T12:17:31;11.93;81.63
62476;DHT22;50739;45.670;11.936;2023-02-25T12:23:04;11.79;81.91
62476;DHT22;50739;45.670;11.936;2023-02-25T12:28:33;11.83;82.48
62476;DHT22;50739;45.670;11.936;2023-02-25T12:33:57;12.00;82.15
62476;DHT22;50739;45.670;11.936;2023-02-25T12:39:31;12.27;81.74
62476;DHT22;50739;45.670;11.936;2023-02-25T12:44:51;12.24;81.26
62476;DHT22;50739;45.670;11.936;2023-02-25T12:50:14;12.03;81.45
62476;DHT22;50739;45.670;11.936;2023-02-25T12:55:30;12.23;81.16
62476;DHT22;50739;45.670;11.936;2023-02-25T13:06:29;12.64;78.98
62476;DHT22;50739;45.670;11.936;2023-02-25T13:11:46;12.58;79.78
62476;DHT22;50739;45.670;11.936;2023-02-25T13:17:00;12.74;79.05
62476;DHT22;50739;45.670;11.936;2023-02-25T13:22:19;12.71;78.72
62476;DHT22;50739;45.670;11.936;2023-02-25T13:28:03;12.45;78.43
62476;DHT22;50739;45.670;11.936;2023-02-25T13:33:19;12.50;79.09
62476;DHT22;50739;45.670;11.936;2023-02-25T13:38:53;12.57;78.55
62476;DHT22;50739;45.670;11.936;2023-02-25T13:44:18;12.67;79.04
62476;DHT22;50739;45.670;11.936;2023-02-25T13:49:34;12.79;77.97
62476;DHT22;50739;45.670;11.936;2023-02-25T14:00:42;13.74;75.38
62476;DHT22;50739;45.670;11.936;2023-02-25T14:06:14;13.97;74.22
62476;DHT22;50739;45.670;11.936;2023-02-25T14:11:33;13.67;74.76
62476;DHT22;50739;45.670;11.936;2023-02-25T14:17:00;13.36;75.91
62476;DHT22;50739;45.670;11.936;2023-02-25T14:22:30;13.05;76.58
62476;DHT22;50739;45.670;11.936;2023-02-25T14:27:40;12.98;77.22
62476;DHT22;50739;45.670;11.936;2023-02-25T14:33:13;13.02;77.22
62476;DHT22;50739;45.670;11.936;2023-02-25T14:38:22;13.05;76.92
62476;DHT22;50739;45.670;11.936;2023-02-25T14:43:29;13.15;76.33
62476;DHT22;50739;45.670;11.936;2023-02-25T14:48:38;13.02;76.71
62476;DHT22;50739;45.670;11.936;2023-02-25T14:54:04;12.91;77.16
62476;DHT22;50739;45.670;11.936;2023-02-25T14:59:17;12.78;77.27
62476;DHT22;50739;45.670;11.936;2023-02-25T15:04:44;12.71;77.74
62476;DHT22;50739;45.670;11.936;2023-02-25T15:10:12;12.60;77.37
62476;DHT22;50739;45.670;11.936;2023-02-25T15:15:48;12.54;78.23
62476;DHT22;50739;45.670;11.936;2023-02-25T15:20:57;12.58;77.89
62476;DHT22;50739;45.670;11.936;2023-02-25T15:26:18;12.51;78.24
62476;DHT22;50739;45.670;11.936;2023-02-25T15:31:26;12.51;78.57
62476;DHT22;50739;45.670;11.936;2023-02-25T15:36:43;12.43;78.83
62476;DHT22;50739;45.670;11.936;2023-02-25T15:41:58;12.43;78.83
62476;DHT22;50739;45.670;11.936;2023-02-25T15:47:32;12.36;79.61
62476;DHT22;50739;45.670;11.936;2023-02-25T15:52:55;12.41;79.41
62476;DHT22;50739;45.670;11.936;2023-02-25T15:57:57;12.37;79.46
62476;DHT22;50739;45.670;11.936;2023-02-25T16:02:59;12.37;79.92
62476;DHT22;50739;45.670;11.936;2023-02-25T16:08:10;12.45;79.29
62476;DHT22;50739;45.670;11.936;2023-02-25T16:13:16;12.31;80.01
62476;DHT22;50739;45.670;11.936;2023-02-25T16:18:24;12.33;80.13
62476;DHT22;50739;45.670;11.936;2023-02-25T16:23:30;12.30;80.45
62476;DHT22;50739;45.670;11.936;2023-02-25T16:28:44;12.26;80.24
62476;DHT22;50739;45.670;11.936;2023-02-25T16:33:52;12.24;80.58
62476;DHT22;50739;45.670;11.936;2023-02-25T16:39:01;12.22;80.67
62476;DHT22;50739;45.670;11.936;2023-02-25T16:44:03;12.23;80.78
62476;DHT22;50739;45.670;11.936;2023-02-25T16:49:08;12.17;81.00
62476;DHT22;50739;45.670;11.936;2023-02-25T16:54:15;12.14;81.07
62476;DHT22;50739;45.670;11.936;2023-02-25T16:59:19;12.14;81.10
62476;DHT22;50739;45.670;11.936;2023-02-25T17:04:23;12.12;81.35
62476;DHT22;50739;45.670;11.936;2023-02-25T17:09:26;12.06;81.51
62476;DHT22;50739;45.670;11.936;2023-02-25T17:14:29;12.06;81.39
62476;DHT22;50739;45.670;11.936;2023-02-25T17:19:31;12.00;81.39
62476;DHT22;50739;45.670;11.936;2023-02-25T17:24:35;12.02;81.76
62476;DHT22;50739;45.670;11.936;2023-02-25T17:29:38;12.02;81.79
62476;DHT22;50739;45.670;11.936;2023-02-25T17:34:41;12.05;81.62
62476;DHT22;50739;45.670;11.936;2023-02-25T17:39:45;11.99;81.57
62476;DHT22;50739;45.670;11.936;2023-02-25T17:44:47;11.87;81.73
62476;DHT22;50739;45.670;11.936;2023-02-25T17:49:49;11.83;82.02
62476;DHT22;50739;45.670;11.936;2023-02-25T17:54:56;11.85;82.08
62476;DHT22;50739;45.670;11.936;2023-02-25T18:00:09;11.85;82.13
62476;DHT22;50739;45.670;11.936;2023-02-25T18:05:23;11.75;82.88
62476;DHT22;50739;45.670;11.936;2023-02-25T18:10:43;11.64;83.11
62476;DHT22;50739;45.670;11.936;2023-02-25T18:15:45;11.68;82.90
62476;DHT22;50739;45.670;11.936;2023-02-25T18:20:47;11.64;83.04
62476;DHT22;50739;45.670;11.936;2023-02-25T18:26:10;11.59;83.92
62476;DHT22;50739;45.670;11.936;2023-02-25T18:31:13;11.41;84.03
62476;DHT22;50739;45.670;11.936;2023-02-25T18:36:19;11.24;84.04
62476;DHT22;50739;45.670;11.936;2023-02-25T18:41:27;11.24;84.24
62476;DHT22;50739;45.670;11.936;2023-02-25T18:46:29;11.24;84.33
62476;DHT22;50739;45.670;11.936;2023-02-25T18:51:31;11.26;84.55
62476;DHT22;50739;45.670;11.936;2023-02-25T18:56:34;11.31;84.37
62476;DHT22;50739;45.670;11.936;2023-02-25T19:01:36;11.32;83.98
62476;DHT22;50739;45.670;11.936;2023-02-25T19:06:38;11.41;83.91
62476;DHT22;50739;45.670;11.936;2023-02-25T19:11:41;11.40;84.00
62476;DHT22;50739;45.670;11.936;2023-02-25T19:16:43;11.28;84.41
62476;DHT22;50739;45.670;11.936;2023-02-25T19:21:45;11.17;84.96
62476;DHT22;50739;45.670;11.936;2023-02-25T19:26:49;11.24;84.78
62476;DHT22;50739;45.670;11.936;2023-02-25T19:31:51;11.35;84.43
62476;DHT22;50739;45.670;11.936;2023-02-25T19:36:53;11.28;84.57
62476;DHT22;50739;45.670;11.936;2023-02-25T19:41:56;11.27;84.55
62476;DHT22;50739;45.670;11.936;2023-02-25T19:46:58;11.30;84.46
62476;DHT22;50739;45.670;11.936;2023-02-25T19:52:00;11.30;85.25
62476;DHT22;50739;45.670;11.936;2023-02-25T19:57:03;11.27;84.92
62476;DHT22;50739;45.670;11.936;2023-02-25T20:02:05;11.26;84.83
62476;DHT22;50739;45.670;11.936;2023-02-25T20:07:08;11.23;84.70
62476;DHT22;50739;45.670;11.936;2023-02-25T20:12:11;11.27;84.54
62476;DHT22;50739;45.670;11.936;2023-02-25T20:17:13;11.32;84.54
62476;DHT22;50739;45.670;11.936;2023-02-25T20:22:15;11.37;84.55
62476;DHT22;50739;45.670;11.936;2023-02-25T20:27:22;11.28;84.59
62476;DHT22;50739;45.670;11.936;2023-02-25T20:32:23;11.30;84.55
62476;DHT22;50739;45.670;11.936;2023-02-25T20:37:29;11.24;84.79
62476;DHT22;50739;45.670;11.936;2023-02-25T20:42:34;11.20;84.62
62476;DHT22;50739;45.670;11.936;2023-02-25T20:47:36;11.07;85.05
62476;DHT22;50739;45.670;11.936;2023-02-25T20:52:39;11.00;85.28
62476;DHT22;50739;45.670;11.936;2023-02-25T20:57:42;11.02;85.28
62476;DHT22;50739;45.670;11.936;2023-02-25T21:02:44;10.88;85.64
62476;DHT22;50739;45.670;11.936;2023-02-25T21:07:46;10.83;85.71
62476;DHT22;50739;45.670;11.936;2023-02-25T21:12:49;10.77;86.09
62476;DHT22;50739;45.670;11.936;2023-02-25T21:17:51;10.83;86.05
62476;DHT22;50739;45.670;11.936;2023-02-25T21:22:53;10.79;86.04
62476;DHT22;50739;45.670;11.936;2023-02-25T21:27:56;10.76;86.04
62476;DHT22;50739;45.670;11.936;2023-02-25T21:32:58;10.79;86.09
62476;DHT22;50739;45.670;11.936;2023-02-25T21:38:00;10.79;86.14
62476;DHT22;50739;45.670;11.936;2023-02-25T21:43:03;10.68;86.38
62476;DHT22;50739;45.670;11.936;2023-02-25T21:48:06;10.73;86.15
62476;DHT22;50739;45.670;11.936;2023-02-25T21:53:07;10.62;86.45
62476;DHT22;50739;45.670;11.936;2023-02-25T21:58:11;10.61;86.63
62476;DHT22;50739;45.670;11.936;2023-02-25T22:03:13;10.61;86.63
62476;DHT22;50739;45.670;11.936;2023-02-25T22:08:14;10.62;86.56
62476;DHT22;50739;45.670;11.936;2023-02-25T22:13:18;10.62;86.69
62476;DHT22;50739;45.670;11.936;2023-02-25T22:18:20;10.68;86.22
62476;DHT22;50739;45.670;11.936;2023-02-25T22:23:21;10.64;86.45
62476;DHT22;50739;45.670;11.936;2023-02-25T22:28:25;10.56;86.50
62476;DHT22;50739;45.670;11.936;2023-02-25T22:33:27;10.54;86.67
62476;DHT22;50739;45.670;11.936;2023-02-25T22:38:32;10.47;86.74
62476;DHT22;50739;45.670;11.936;2023-02-25T22:43:36;10.38;86.52
62476;DHT22;50739;45.670;11.936;2023-02-25T22:48:39;10.31;86.96
62476;DHT22;50739;45.670;11.936;2023-02-25T22:53:42;10.28;86.90
62476;DHT22;50739;45.670;11.936;2023-02-25T22:58:45;10.24;86.98
62476;DHT22;50739;45.670;11.936;2023-02-25T23:03:48;10.17;87.29
62476;DHT22;50739;45.670;11.936;2023-02-25T23:08:50;10.11;87.10
62476;DHT22;50739;45.670;11.936;2023-02-25T23:13:56;10.07;87.34
62476;DHT22;50739;45.670;11.936;2023-02-25T23:19:00;10.01;87.52
62476;DHT22;50739;45.670;11.936;2023-02-25T23:24:03;10.11;87.22
62476;DHT22;50739;45.670;11.936;2023-02-25T23:29:09;10.04;87.39
62476;DHT22;50739;45.670;11.936;2023-02-25T23:34:15;10.07;87.18
62476;DHT22;50739;45.670;11.936;2023-02-25T23:39:18;9.91;87.86
62476;DHT22;50739;45.670;11.936;2023-02-25T23:44:21;10.00;87.21
62476;DHT22;50739;45.670;11.936;2023-02-25T23:49:23;9.97;87.09
62476;DHT22;50739;45.670;11.936;2023-02-25T23:54:25;9.93;87.24
62476;DHT22;50739;45.670;11.936;2023-02-25T23:59:28;9.73;87.84
